CheckWX is a tool to help pilots better visualize weather data.  It is not intended as a substitute for an official pre-flight weather briefing.

18:46:47 UTC

1A5 METAR
Macon County Airport
Franklin, North Carolina, USA
Current

27 mins ago

K1A5 261820Z AUTO 23003KT 10SM SCT050 SCT060 16/07 A3011 RMK AO2 T01620072
Observed
Mar-26 @ 18:20 UTC
Wind
  • 230° at 3 KTS
Visibility
10 SM
Flight Rules
VFR
Cloud Levels
  • Scattered at 5,000' AGL
  • Scattered at 6,000' AGL
Temperature
16°C / 61°F
Dewpoint
C / 45°F
Humidity
55%
Altimeter
30.11" Hg
Pressure
1019.62 hPa
Previous

47 mins ago

K1A5 261800Z AUTO 00000KT 10SM CLR 16/07 A3012 RMK AO2 T01610074
Observed
Mar-26 @ 18:00 UTC
Visibility
10 SM
Flight Rules
VFR
Cloud Levels
  • Clear skies
Temperature
16°C / 61°F
Dewpoint
C / 45°F
Humidity
55%
Altimeter
30.12" Hg
Pressure
1020.02 hPa
Previous

1 hour ago

K1A5 261740Z AUTO 29003KT 10SM CLR 16/08 A3013 RMK AO2 T01550080
Observed
Mar-26 @ 17:40 UTC
Wind
  • 290° at 3 KTS
Visibility
10 SM
Flight Rules
VFR
Cloud Levels
  • Clear skies
Temperature
16°C / 61°F
Dewpoint
C / 46°F
Humidity
59%
Altimeter
30.13" Hg
Pressure
1020.32 hPa